Time;durP1;ratioP1;P1;durP2;ratioP2;P2;SDS_P1;SDS_P2;PMS_P1;PMS_P2;Temp;Humidity;BMP_temperature;BMP_pressure;BME280_temperature;BME280_humidity;BME280_pressure;Samples;Min_cycle;Max_cycle;Signal;HPM_P1;HPM_P2
2023/04/14 00:04:07;;;;;;;3.15;1.63;;;;;;;9.44;72.09;99255.13;10336481;28;20047;-81
2023/04/14 00:09:09;;;;;;;2.78;1.88;;;;;;;9.22;73.23;99267.53;10334180;28;20058;-81
2023/04/14 00:14:09;;;;;;;4.82;2.22;;;;;;;9.18;74.09;99302.50;10334814;28;20050;-81
2023/04/14 00:19:10;;;;;;;2.78;1.92;;;;;;;8.99;74.58;99295.94;10334818;28;20046;-80
2023/04/14 00:24:11;;;;;;;3.97;2.20;;;;;;;8.82;75.02;99282.88;10335408;28;20133;-80
2023/04/14 00:29:12;;;;;;;3.28;2.03;;;;;;;8.53;75.28;99245.81;10334010;28;20526;-80
2023/04/14 00:34:12;;;;;;;3.30;2.13;;;;;;;8.82;75.57;99309.34;10333200;28;20038;-80
2023/04/14 00:39:13;;;;;;;2.95;1.98;;;;;;;8.80;75.98;99314.03;10333673;28;20046;-81
2023/04/14 00:44:14;;;;;;;3.90;2.15;;;;;;;8.33;76.28;99234.91;10333187;28;20042;-80
2023/04/14 00:49:16;;;;;;;9.85;2.58;;;;;;;8.40;76.97;99288.78;10333627;28;20042;-81
2023/04/14 00:54:18;;;;;;;3.97;2.35;;;;;;;7.69;77.89;99211.50;10343413;28;20054;-82
2023/04/14 00:59:19;;;;;;;4.25;2.90;;;;;;;8.19;78.23;99319.34;10331626;28;20046;-80
2023/04/14 01:04:21;;;;;;;7.40;3.05;;;;;;;7.71;78.92;99246.50;10350687;28;20048;-80
2023/04/14 01:09:23;;;;;;;4.78;3.10;;;;;;;7.42;78.88;99218.97;10341247;28;20380;-81
2023/04/14 01:14:41;;;;;;;4.65;3.03;;;;;;;7.93;81.53;99295.09;10331870;28;20050;-82
2023/04/14 01:20:00;;;;;;;4.03;3.00;;;;;;;7.95;81.66;99312.41;10331110;28;20053;-81
2023/04/14 01:25:07;;;;;;;4.82;3.00;;;;;;;7.92;81.69;99302.19;10331720;28;20140;-80
2023/04/14 01:30:17;;;;;;;4.28;2.58;;;;;;;7.43;82.12;99222.41;10330776;28;20049;-80
2023/04/14 01:35:23;;;;;;;5.30;3.53;;;;;;;7.89;81.56;99299.91;10365063;28;20099;-81
2023/04/14 01:40:27;;;;;;;4.32;2.55;;;;;;;7.91;81.21;99300.56;10372214;28;20042;-84
2023/04/14 01:45:35;;;;;;;6.25;3.22;;;;;;;7.78;81.35;99282.63;10372805;28;20038;-80
2023/04/14 01:50:37;;;;;;;5.07;3.15;;;;;;;7.82;81.20;99312.19;10375088;28;20563;-80
2023/04/14 01:55:40;;;;;;;4.55;3.17;;;;;;;7.69;81.96;99312.78;10381748;28;20046;-82
2023/04/14 02:00:43;;;;;;;4.80;3.28;;;;;;;7.39;82.33;99279.22;10380474;28;20038;-81
2023/04/14 02:05:46;;;;;;;5.22;3.50;;;;;;;7.08;82.17;99241.25;10380577;28;20092;-81
2023/04/14 02:10:49;;;;;;;6.57;3.45;;;;;;;7.48;83.18;99307.28;10373540;28;20145;-80
2023/04/14 02:15:51;;;;;;;6.13;3.47;;;;;;;7.41;83.04;99312.41;10358632;28;20157;-82
2023/04/14 02:20:55;;;;;;;5.55;4.18;;;;;;;6.74;83.80;99212.53;10339852;28;20384;-83
2023/04/14 02:26:11;;;;;;;5.22;3.25;;;;;;;7.32;85.87;99330.13;10339313;28;20042;-88
2023/04/14 02:31:19;;;;;;;5.40;3.50;;;;;;;7.16;84.44;99295.88;10337394;28;20080;-87
2023/04/14 02:36:27;;;;;;;8.07;3.67;;;;;;;7.28;84.84;99309.50;10339210;28;20050;-87
2023/04/14 02:41:30;;;;;;;4.70;3.33;;;;;;;7.31;84.25;99303.88;10337310;28;20047;-85
2023/04/14 02:46:38;;;;;;;5.80;3.05;;;;;;;7.50;84.94;99316.66;10349212;28;20050;-80
2023/04/14 02:51:40;;;;;;;5.80;3.63;;;;;;;7.36;83.80;99283.06;10337183;28;20089;-83
2023/04/14 02:56:41;;;;;;;4.63;2.70;;;;;;;7.38;83.60;99274.94;10338477;28;20128;-81
2023/04/14 03:01:42;;;;;;;5.43;3.30;;;;;;;7.63;83.60;99296.75;10338121;28;20042;-83
2023/04/14 03:06:44;;;;;;;7.68;3.35;;;;;;;7.85;83.29;99326.88;10337327;28;20050;-82
2023/04/14 03:11:45;;;;;;;4.72;2.97;;;;;;;8.14;82.96;99352.66;10334055;28;20057;-83
2023/04/14 03:16:50;;;;;;;4.22;2.60;;;;;;;8.38;82.51;99339.25;10339517;28;20061;-80
2023/04/14 03:21:53;;;;;;;5.68;2.63;;;;;;;9.16;81.36;99349.59;10330604;28;20045;-79
2023/04/14 03:27:00;;;;;;;3.58;2.30;;;;;;;10.08;78.92;99371.09;10328691;28;20050;-80
2023/04/14 03:32:05;;;;;;;6.05;2.30;;;;;;;10.79;75.49;99282.63;10354716;28;20501;-79
2023/04/14 03:37:08;;;;;;;3.00;1.88;;;;;;;11.92;74.12;99361.09;10366351;28;20053;-83
2023/04/14 03:42:10;;;;;;;2.53;1.70;;;;;;;12.24;72.74;99332.88;10370566;28;20037;-87
2023/04/14 03:47:13;;;;;;;2.50;1.33;;;;;;;12.93;71.02;99333.47;10338700;28;20422;-81
2023/04/14 03:52:15;;;;;;;3.22;1.50;;;;;;;12.88;69.75;99318.09;10367220;28;20069;-80
2023/04/14 03:57:18;;;;;;;2.30;1.08;;;;;;;13.32;68.54;99359.25;10346194;28;20041;-80
2023/04/14 04:02:21;;;;;;;3.42;1.10;;;;;;;13.53;66.99;99344.81;10352962;28;20046;-81
2023/04/14 04:07:24;;;;;;;2.03;0.90;;;;;;;14.09;65.04;99327.25;10375344;28;20050;-77
2023/04/14 04:12:26;;;;;;;5.82;1.15;;;;;;;14.93;64.03;99376.00;10356676;28;20145;-74
2023/04/14 04:17:31;;;;;;;1.88;0.70;;;;;;;15.10;63.20;99376.22;10413294;28;20045;-79
2023/04/14 04:22:36;;;;;;;5.20;0.90;;;;;;;15.24;61.49;99337.59;10374659;28;20067;-80
2023/04/14 04:27:37;;;;;;;1.92;0.45;;;;;;;16.09;61.34;99372.38;10391744;28;20041;-77
2023/04/14 04:32:38;;;;;;;1.30;0.40;;;;;;;16.48;59.64;99372.03;10412803;28;20045;-77
2023/04/14 04:37:41;;;;;;;1.58;0.40;;;;;;;16.56;57.86;99371.69;10414903;28;20041;-77
2023/04/14 04:42:42;;;;;;;1.10;0.33;;;;;;;16.81;56.74;99380.41;10376064;28;20042;-76
2023/04/14 04:47:43;;;;;;;2.15;0.63;;;;;;;16.01;55.36;99295.03;10377617;28;20049;-76
2023/04/14 04:52:44;;;;;;;0.60;0.30;;;;;;;16.12;54.66;99347.00;10390038;28;20064;-76
2023/04/14 04:57:45;;;;;;;2.15;0.20;;;;;;;15.76;55.38;99348.72;10387599;28;20038;-76
2023/04/14 05:02:46;;;;;;;1.05;0.40;;;;;;;15.77;55.06;99354.91;10400648;28;20042;-76
2023/04/14 05:07:47;;;;;;;1.45;0.30;;;;;;;15.74;53.57;99342.78;10413164;28;20087;-76
2023/04/14 05:12:47;;;;;;;1.77;0.50;;;;;;;16.13;53.74;99343.28;10412455;28;20455;-76
2023/04/14 05:17:48;;;;;;;1.58;0.63;;;;;;;15.74;52.79;99270.50;10412674;28;20124;-77
2023/04/14 05:22:49;;;;;;;1.83;0.30;;;;;;;15.95;52.19;99333.44;10413191;28;20621;-75
2023/04/14 05:27:50;;;;;;;1.83;0.45;;;;;;;15.98;52.07;99308.88;10412129;28;20033;-76
2023/04/14 05:32:51;;;;;;;1.50;0.40;;;;;;;16.31;52.15;99343.22;10412810;28;20572;-76
2023/04/14 05:37:51;;;;;;;3.15;0.52;;;;;;;16.07;50.92;99299.47;10413926;28;20489;-76
2023/04/14 05:42:52;;;;;;;1.00;0.40;;;;;;;16.32;51.13;99333.31;10412739;28;20075;-75
2023/04/14 05:47:53;;;;;;;4.05;0.30;;;;;;;16.43;50.07;99327.16;10413050;28;20061;-75
2023/04/14 05:52:54;;;;;;;0.50;0.20;;;;;;;16.43;49.75;99308.41;10412523;28;20068;-76
2023/04/14 05:57:55;;;;;;;1.63;0.40;;;;;;;16.69;49.90;99328.56;10413183;28;20150;-75
2023/04/14 06:02:56;;;;;;;8.07;0.50;;;;;;;16.66;48.61;99272.72;10413266;28;20565;-75
2023/04/14 06:07:56;;;;;;;0.98;0.20;;;;;;;16.85;49.07;99295.72;10411335;28;20059;-75
2023/04/14 06:12:57;;;;;;;1.15;0.40;;;;;;;17.43;48.66;99352.22;10412059;28;20049;-75
2023/04/14 06:17:58;;;;;;;2.75;0.50;;;;;;;17.31;47.87;99328.88;10412131;28;20045;-75
2023/04/14 06:22:59;;;;;;;1.70;0.40;;;;;;;17.34;47.65;99325.72;10412956;28;20041;-76
2023/04/14 06:28:03;;;;;;;4.88;0.38;;;;;;;17.43;47.00;99354.91;10411803;28;20040;-75
2023/04/14 06:33:04;;;;;;;2.28;0.40;;;;;;;17.28;47.22;99353.53;10411092;28;20057;-76
2023/04/14 06:38:05;;;;;;;0.93;0.30;;;;;;;17.33;47.46;99361.69;10416638;28;20041;-76
2023/04/14 06:43:09;;;;;;;1.25;0.50;;;;;;;17.51;46.98;99351.84;10419366;28;20083;-76
2023/04/14 06:48:12;;;;;;;1.85;0.30;;;;;;;17.68;46.82;99347.38;10419832;28;20041;-76
2023/04/14 06:53:13;;;;;;;1.52;0.50;;;;;;;17.84;46.59;99336.94;10418800;28;20037;-78
2023/04/14 06:58:14;;;;;;;1.52;0.38;;;;;;;17.85;46.83;99341.25;10418283;28;20711;-76
2023/04/14 07:03:15;;;;;;;0.77;0.20;;;;;;;17.99;45.90;99337.22;10393351;28;20042;-75
2023/04/14 07:08:19;;;;;;;4.32;0.30;;;;;;;18.10;44.78;99362.41;10409161;28;20053;-76
2023/04/14 07:13:20;;;;;;;0.90;0.20;;;;;;;18.09;45.09;99368.84;10417914;28;20071;-75
2023/04/14 07:18:21;;;;;;;2.70;0.30;;;;;;;18.08;44.45;99346.53;10417978;28;20048;-77
2023/04/14 07:23:22;;;;;;;3.60;0.40;;;;;;;18.45;44.46;99357.63;10390743;28;20486;-75
2023/04/14 07:28:24;;;;;;;3.83;0.40;;;;;;;18.58;43.92;99348.47;10377427;28;20498;-75
2023/04/14 07:33:29;;;;;;;7.20;0.43;;;;;;;18.59;43.47;99349.28;10384782;28;20513;-74
2023/04/14 07:38:31;;;;;;;4.28;0.60;;;;;;;18.60;42.60;99361.66;10379836;28;20132;-77
2023/04/14 07:43:35;;;;;;;4.32;0.60;;;;;;;18.89;43.17;99357.84;10394687;28;20497;-77
2023/04/14 07:48:36;;;;;;;;;;;;;;;19.55;42.22;99336.38;10416615;28;20049;-80
2023/04/14 07:53:41;;;;;;;8.02;0.60;;;;;;;19.01;41.87;99328.13;10416939;28;19917;-74
2023/04/14 07:58:42;;;;;;;2.30;0.70;;;;;;;18.73;41.34;99277.97;10387443;28;20065;-75
2023/04/14 08:03:42;;;;;;;2.08;0.60;;;;;;;18.63;40.50;99315.44;10375197;28;20048;-77
2023/04/14 08:08:43;;;;;;;10.05;0.60;;;;;;;18.14;41.06;99248.81;10375450;28;20057;-76
2023/04/14 08:13:45;;;;;;;5.10;0.80;;;;;;;18.56;40.47;99315.59;10375408;28;20057;-74
2023/04/14 08:18:46;;;;;;;4.63;1.02;;;;;;;18.41;38.81;99253.53;10375667;28;20056;-75
2023/04/14 08:23:47;;;;;;;9.00;0.88;;;;;;;18.88;37.89;99285.44;10373666;28;20104;-75
2023/04/14 08:28:48;;;;;;;2.53;0.50;;;;;;;19.21;38.42;99289.91;10375320;28;20080;-74
2023/04/14 08:33:49;;;;;;;8.27;0.80;;;;;;;19.58;38.19;99251.53;10374651;28;20120;-76
2023/04/14 08:38:52;;;;;;;3.95;0.50;;;;;;;19.92;36.81;99217.13;10374055;28;20044;-76
2023/04/14 08:43:53;;;;;;;3.83;0.70;;;;;;;20.29;35.85;99183.97;10373721;28;20042;-76
2023/04/14 08:49:00;;;;;;;5.85;0.70;;;;;;;20.80;33.85;99249.06;10373993;28;20038;-74
2023/04/14 08:54:09;;;;;;;3.08;0.60;;;;;;;21.01;33.56;99214.06;10374038;28;20055;-77
2023/04/14 08:59:10;;;;;;;3.50;0.45;;;;;;;21.11;33.25;99236.50;10374153;28;20552;-75
2023/04/14 09:04:13;;;;;;;3.28;0.65;;;;;;;21.14;33.42;99195.47;10373649;28;20457;-76
2023/04/14 09:09:14;;;;;;;4.95;0.82;;;;;;;21.25;31.79;99207.13;10373373;28;20054;-76
2023/04/14 09:14:17;;;;;;;3.00;0.70;;;;;;;21.50;31.95;99230.72;10371450;28;20100;-75
2023/04/14 09:19:20;;;;;;;1.80;0.52;;;;;;;21.79;31.79;99204.00;10372429;28;20042;-76
2023/04/14 09:24:25;;;;;;;3.70;0.60;;;;;;;21.83;32.35;99215.09;10373104;28;20095;-75
2023/04/14 09:29:26;;;;;;;6.05;0.70;;;;;;;22.10;31.31;99212.09;10372031;28;20046;-75
2023/04/14 09:34:27;;;;;;;4.18;0.70;;;;;;;21.93;31.52;99189.94;10371927;28;20054;-75
2023/04/14 09:39:28;;;;;;;4.50;0.70;;;;;;;22.03;31.06;99198.06;10372637;28;20048;-78
2023/04/14 09:44:29;;;;;;;3.95;0.82;;;;;;;22.01;30.01;99195.63;10373073;28;20504;-75
2023/04/14 09:49:30;;;;;;;6.68;0.68;;;;;;;21.76;30.03;99149.69;10372408;28;20045;-78
2023/04/14 09:54:32;;;;;;;1.83;0.50;;;;;;;21.87;29.74;99157.50;10371971;28;20445;-76
2023/04/14 09:59:36;;;;;;;6.18;0.68;;;;;;;21.17;28.14;99054.50;10371614;28;20065;-75
2023/04/14 10:04:37;;;;;;;7.57;0.63;;;;;;;21.72;28.60;99189.97;10389718;28;20068;-75
2023/04/14 10:09:39;;;;;;;2.78;0.60;;;;;;;22.27;29.10;99228.09;10403327;28;20092;-76
2023/04/14 12:30:20;;;;;;;18.15;1.42;;;;;;;18.77;35.05;99283.66;10428986;28;20449;-74
2023/04/14 12:35:22;;;;;;;11.65;1.35;;;;;;;18.85;35.22;99280.56;10438759;28;20144;-74
2023/04/14 12:40:37;;;;;;;15.73;1.63;;;;;;;18.79;34.87;99260.03;10441264;28;20045;-73
2023/04/14 12:45:49;;;;;;;28.17;2.33;;;;;;;18.22;35.31;99194.63;10435437;28;20080;-73
2023/04/14 12:51:06;;;;;;;17.55;1.80;;;;;;;18.63;36.04;99269.69;10418081;28;20049;-74
2023/04/14 12:56:08;;;;;;;9.55;1.67;;;;;;;18.34;36.57;99226.00;10440956;28;20377;-74
2023/04/14 13:01:10;;;;;;;8.10;1.40;;;;;;;18.60;36.71;99273.69;10441529;28;20389;-75
2023/04/14 13:06:15;;;;;;;9.02;1.55;;;;;;;18.59;36.48;99260.50;10435522;28;20071;-75
2023/04/14 13:11:17;;;;;;;17.67;1.42;;;;;;;18.40;36.99;99273.41;10433919;28;20079;-76
2023/04/14 13:16:18;;;;;;;16.27;1.88;;;;;;;17.77;37.44;99202.75;10440153;28;20060;-76
2023/04/14 13:21:19;;;;;;;16.48;1.63;;;;;;;17.98;38.29;99293.44;10538311;27;20038;-79
2023/04/14 13:26:21;;;;;;;7.35;1.45;;;;;;;17.71;38.81;99263.63;10439583;28;20064;-74
2023/04/14 13:31:22;;;;;;;11.88;1.50;;;;;;;17.11;39.25;99229.16;10413452;28;20045;-76
2023/04/14 13:36:23;;;;;;;13.18;1.80;;;;;;;17.22;40.24;99289.25;10405839;28;20394;-75
2023/04/14 13:41:25;;;;;;;11.50;2.20;;;;;;;17.02;40.76;99292.31;10399452;28;20045;-75
2023/04/14 13:46:26;;;;;;;11.93;1.80;;;;;;;16.89;41.19;99298.75;10401176;28;20107;-76
2023/04/14 13:51:27;;;;;;;15.20;1.80;;;;;;;16.71;41.70;99294.28;10411513;28;20556;-76
2023/04/14 13:56:28;;;;;;;12.13;1.60;;;;;;;16.58;42.21;99319.47;10409585;28;20512;-75
2023/04/14 14:01:29;;;;;;;16.30;1.83;;;;;;;16.58;42.15;99311.44;10412032;28;20041;-75
2023/04/14 14:06:30;;;;;;;11.15;1.42;;;;;;;16.39;42.61;99296.47;10410430;28;20072;-76
2023/04/14 14:11:31;;;;;;;12.13;1.70;;;;;;;16.49;43.13;99345.00;10400685;28;20049;-78
2023/04/14 14:16:32;;;;;;;11.45;1.70;;;;;;;16.22;43.42;99320.47;10410290;28;20048;-75
2023/04/14 14:21:33;;;;;;;13.45;1.70;;;;;;;16.14;43.81;99304.72;10408417;28;20523;-77
2023/04/14 14:26:34;;;;;;;17.23;2.33;;;;;;;16.32;44.06;99341.34;10410188;28;20053;-76
2023/04/14 14:31:35;;;;;;;11.75;1.38;;;;;;;16.28;44.49;99324.09;10410600;28;20049;-73
2023/04/14 14:36:36;;;;;;;6.38;1.50;;;;;;;16.22;44.46;99328.50;10409829;28;20411;-75
2023/04/14 14:41:38;;;;;;;13.90;1.88;;;;;;;15.93;44.53;99298.03;10406431;28;20053;-77
2023/04/14 14:46:39;;;;;;;5.30;1.25;;;;;;;15.97;44.76;99350.94;10409805;28;20484;-75
2023/04/14 14:51:40;;;;;;;9.18;2.60;;;;;;;16.17;44.76;99419.47;10402389;28;20048;-75
2023/04/14 14:56:41;;;;;;;16.55;1.70;;;;;;;15.61;44.98;99350.94;10407102;28;20060;-76
2023/04/14 15:01:41;;;;;;;5.20;1.80;;;;;;;15.69;44.91;99375.59;10406378;28;20041;-76
2023/04/14 15:06:42;;;;;;;15.35;2.20;;;;;;;15.59;44.98;99350.38;10408683;28;20041;-74
2023/04/14 15:11:43;;;;;;;18.77;2.53;;;;;;;15.44;45.17;99351.56;10408402;28;20504;-76
2023/04/14 15:16:45;;;;;;;26.10;2.58;;;;;;;15.91;45.05;99440.22;10405714;28;20106;-73
2023/04/14 15:21:45;;;;;;;13.73;2.53;;;;;;;15.62;45.23;99398.13;10406281;28;20080;-75
2023/04/14 15:26:46;;;;;;;9.45;2.60;;;;;;;15.77;45.57;99452.13;10406183;28;20085;-74
2023/04/14 15:31:47;;;;;;;23.52;3.55;;;;;;;14.99;45.74;99357.19;10407524;28;20037;-73
2023/04/14 15:36:48;;;;;;;23.27;2.47;;;;;;;15.52;46.17;99455.66;10408278;28;20068;-77
2023/04/14 15:41:50;;;;;;;10.20;2.10;;;;;;;15.19;46.14;99407.81;10405005;28;20036;-75
2023/04/14 15:46:50;;;;;;;11.77;2.35;;;;;;;15.41;46.14;99456.38;10402558;28;20049;-74
2023/04/14 15:51:52;;;;;;;15.27;2.40;;;;;;;14.73;45.84;99349.41;10405624;28;20504;-74
2023/04/14 15:56:52;;;;;;;11.05;2.47;;;;;;;15.21;45.30;99421.78;10406631;28;20496;-75
2023/04/14 16:01:53;;;;;;;8.02;2.20;;;;;;;15.39;44.26;99437.06;10405022;28;20101;-73
2023/04/14 16:06:55;;;;;;;5.50;1.85;;;;;;;15.30;43.08;99411.63;10407278;28;20049;-73
2023/04/14 16:11:56;;;;;;;7.32;1.90;;;;;;;15.26;43.82;99394.38;10406900;28;20033;-74
2023/04/14 16:16:57;;;;;;;8.48;2.22;;;;;;;15.73;42.92;99508.00;10404469;28;20033;-73
2023/04/14 16:21:57;;;;;;;5.20;1.30;;;;;;;15.50;45.07;99567.47;10397794;28;20132;-74
2023/04/14 16:26:58;;;;;;;5.68;1.35;;;;;;;15.44;44.69;99567.53;10401005;28;20156;-76
2023/04/14 16:32:00;;;;;;;20.33;1.80;;;;;;;15.00;45.01;99532.66;10406933;28;20044;-82
2023/04/14 16:37:00;;;;;;;6.28;1.88;;;;;;;15.07;44.83;99567.38;10406279;28;20089;-77
2023/04/14 16:42:02;;;;;;;10.40;2.03;;;;;;;15.45;43.98;99636.91;10403979;28;20042;-76
2023/04/14 16:47:02;;;;;;;7.28;2.08;;;;;;;15.48;43.96;99671.25;10404692;28;20041;-76
2023/04/14 16:52:03;;;;;;;14.60;2.15;;;;;;;15.19;43.98;99626.38;10406332;28;20045;-77
2023/04/14 16:57:04;;;;;;;10.48;2.00;;;;;;;15.51;43.39;99683.41;10457171;28;20035;-78
2023/04/14 17:02:06;;;;;;;14.38;2.47;;;;;;;15.37;42.90;99655.88;10387343;28;20053;-76
2023/04/14 17:07:07;;;;;;;9.77;2.42;;;;;;;15.37;42.34;99647.03;10412433;28;20118;-75
2023/04/14 17:12:08;;;;;;;15.60;2.58;;;;;;;15.58;42.25;99696.72;10412326;28;20577;-77
2023/04/14 17:17:09;;;;;;;11.18;2.45;;;;;;;15.53;42.22;99706.25;10413048;28;20079;-79
2023/04/14 17:22:10;;;;;;;7.00;1.90;;;;;;;15.56;42.66;99713.03;10413274;28;20077;-77
2023/04/14 18:15:39;;;;;;;5.57;2.08;;;;;;;15.35;41.91;99735.59;10479865;28;20410;-77
2023/04/14 18:20:44;;;;;;;9.55;2.35;;;;;;;15.35;41.82;99754.31;10441206;28;20500;-77
2023/04/14 18:25:44;;;;;;;4.43;1.75;;;;;;;15.11;42.05;99717.59;10429905;28;20045;-77
2023/04/14 18:30:54;;;;;;;4.55;1.67;;;;;;;15.20;42.38;99759.94;10420124;28;20041;-77
2023/04/14 18:35:57;;;;;;;3.42;1.73;;;;;;;14.69;42.24;99677.00;10399457;28;20067;-77
2023/04/14 18:41:04;;;;;;;4.47;1.70;;;;;;;14.86;42.07;99704.91;10400051;28;20038;-77
2023/04/14 18:46:05;;;;;;;3.25;1.60;;;;;;;14.72;42.16;99695.34;10399390;28;20033;-77
2023/04/14 18:51:08;;;;;;;4.70;2.00;;;;;;;14.48;43.02;99673.56;10399421;28;20544;-76
2023/04/14 18:56:09;;;;;;;4.73;1.77;;;;;;;14.74;43.20;99711.97;10399418;28;20049;-77
2023/04/14 19:01:11;;;;;;;3.95;1.40;;;;;;;14.56;43.23;99683.22;10399203;28;20495;-77
2023/04/14 19:06:11;;;;;;;5.32;1.30;;;;;;;14.86;43.26;99734.34;10358230;28;20038;-76
2023/04/14 19:11:12;;;;;;;5.93;1.58;;;;;;;14.71;43.48;99718.53;10356259;28;20137;-78
2023/04/14 19:16:13;;;;;;;4.85;1.23;;;;;;;14.73;43.32;99726.38;10332446;28;20087;-77
2023/04/14 19:21:14;;;;;;;5.45;1.52;;;;;;;14.09;44.12;99619.19;10330560;28;20516;-77
2023/04/14 19:26:16;;;;;;;3.85;1.40;;;;;;;14.68;45.49;99739.53;10330621;28;20046;-78
2023/04/14 19:31:18;;;;;;;2.83;1.30;;;;;;;14.43;46.62;99756.22;10329122;28;20038;-76
2023/04/14 19:36:19;;;;;;;2.75;1.40;;;;;;;14.27;47.06;99733.41;10329916;28;20134;-78
2023/04/14 19:41:20;;;;;;;7.15;1.55;;;;;;;14.23;46.92;99748.19;10330433;28;20507;-80
2023/04/14 19:46:21;;;;;;;4.90;1.40;;;;;;;13.91;46.08;99707.94;10329116;28;20042;-76
2023/04/14 19:51:22;;;;;;;4.90;1.50;;;;;;;14.27;45.52;99759.28;10329934;28;20133;-77
2023/04/14 19:56:22;;;;;;;4.47;1.55;;;;;;;14.28;44.96;99747.59;10329318;28;20125;-75
2023/04/14 20:01:24;;;;;;;3.80;1.15;;;;;;;14.34;44.16;99739.56;10328853;28;20056;-78
2023/04/14 20:06:25;;;;;;;3.47;1.20;;;;;;;14.20;43.81;99716.56;10329476;28;20146;-75
2023/04/14 20:11:27;;;;;;;2.95;1.38;;;;;;;14.12;43.41;99704.25;10328735;28;20133;-75
2023/04/14 20:16:27;;;;;;;7.50;1.63;;;;;;;14.24;42.82;99724.97;10328979;28;20558;-76
2023/04/14 20:21:28;;;;;;;3.92;1.48;;;;;;;14.35;42.74;99757.22;10435290;28;20043;-75
2023/04/14 20:26:29;;;;;;;3.15;1.60;;;;;;;14.02;42.73;99719.84;10405945;28;20053;-78
2023/04/14 20:31:30;;;;;;;3.08;1.60;;;;;;;14.07;42.76;99733.41;10545325;28;20502;-76
2023/04/14 20:36:34;;;;;;;3.72;1.48;;;;;;;14.02;42.77;99740.41;10440816;28;20079;-77
2023/04/14 20:41:37;;;;;;;;;;;;;;;14.27;42.05;99769.97;10369413;28;20034;-74
2023/04/14 20:46:38;;;;;;;3.87;1.40;;;;;;;13.33;42.72;99654.31;10367921;28;19932;-76
2023/04/14 20:51:39;;;;;;;2.80;1.25;;;;;;;14.12;42.56;99784.38;10368165;28;20091;-76
2023/04/14 20:56:40;;;;;;;3.00;1.20;;;;;;;14.10;42.70;99782.94;10368328;28;20052;-77
2023/04/14 21:01:41;;;;;;;2.58;1.33;;;;;;;13.90;42.40;99758.88;10368174;28;20488;-76
2023/04/14 21:06:42;;;;;;;3.53;1.42;;;;;;;13.92;42.53;99770.19;10368230;28;20048;-77
2023/04/14 21:11:43;;;;;;;3.45;1.33;;;;;;;13.93;42.68;99782.50;10368097;28;20564;-75
2023/04/14 21:16:44;;;;;;;7.60;1.58;;;;;;;13.40;42.47;99694.31;10367563;28;20144;-75
2023/04/14 21:21:45;;;;;;;6.47;1.70;;;;;;;13.13;42.84;99658.72;10366841;28;20497;-76
2023/04/14 21:26:46;;;;;;;2.40;1.23;;;;;;;13.67;43.08;99756.56;10366860;28;20048;-76
2023/04/14 21:31:47;;;;;;;2.88;1.30;;;;;;;13.80;43.00;99779.81;10367997;28;20045;-76
2023/04/14 21:36:48;;;;;;;3.15;1.30;;;;;;;13.54;43.19;99753.88;10366879;28;20094;-75
2023/04/14 21:41:48;;;;;;;3.00;1.42;;;;;;;13.53;43.32;99774.41;10366789;28;20038;-76
2023/04/14 21:46:49;;;;;;;3.03;1.33;;;;;;;13.74;43.32;99818.81;10366400;28;20049;-78
2023/04/14 21:51:51;;;;;;;6.07;1.30;;;;;;;13.73;43.37;99825.19;10364997;28;20126;-77
2023/04/14 21:56:52;;;;;;;3.83;1.30;;;;;;;13.15;44.14;99724.19;10365747;28;20042;-75
2023/04/14 22:01:53;;;;;;;3.00;1.30;;;;;;;13.28;44.06;99762.63;10365785;28;20523;-76
2023/04/14 22:06:54;;;;;;;3.40;1.30;;;;;;;13.38;43.91;99785.25;10366871;28;20042;-75
2023/04/14 22:11:56;;;;;;;3.92;1.40;;;;;;;13.56;44.46;99832.72;10366430;28;20061;-76
2023/04/14 22:16:57;;;;;;;3.88;1.85;;;;;;;12.98;44.61;99747.72;10366419;28;20042;-75
2023/04/14 22:21:58;;;;;;;3.75;1.38;;;;;;;13.06;44.91;99761.91;10365940;28;20042;-75
2023/04/14 22:26:59;;;;;;;4.68;1.23;;;;;;;13.41;45.48;99840.06;10365925;28;20046;-76
2023/04/14 22:32:00;;;;;;;3.03;1.50;;;;;;;13.28;45.73;99829.31;10365731;28;20042;-75
2023/04/14 22:37:01;;;;;;;3.72;1.58;;;;;;;13.23;45.85;99854.72;10366114;28;20083;-76
2023/04/14 22:42:02;;;;;;;3.53;1.40;;;;;;;12.70;46.47;99792.25;10366530;28;20461;-76
2023/04/14 22:47:03;;;;;;;2.40;1.20;;;;;;;12.97;46.66;99860.72;10364873;28;20129;-76
2023/04/14 22:52:04;;;;;;;3.60;1.30;;;;;;;12.97;46.87;99870.56;10372105;28;20136;-76
2023/04/14 22:57:05;;;;;;;3.58;1.40;;;;;;;12.76;48.10;99876.75;10371784;28;20038;-76
2023/04/14 23:02:06;;;;;;;4.53;1.77;;;;;;;12.67;49.23;99876.06;10372619;28;20074;-77
2023/04/14 23:07:07;;;;;;;4.43;1.77;;;;;;;12.09;50.93;99803.47;10371242;28;20066;-76
2023/04/14 23:12:08;;;;;;;4.68;2.00;;;;;;;12.54;51.78;99890.13;10370875;28;20089;-77
2023/04/14 23:17:09;;;;;;;3.63;1.77;;;;;;;12.41;52.95;99889.16;10371616;28;20095;-75
2023/04/14 23:22:10;;;;;;;3.80;1.83;;;;;;;12.40;52.90;99888.34;10371242;28;20125;-75
2023/04/14 23:27:11;;;;;;;3.30;1.85;;;;;;;12.51;53.14;99911.00;10371115;28;20129;-76
2023/04/14 23:32:12;;;;;;;4.25;1.38;;;;;;;12.47;53.51;99896.38;10371033;28;20049;-76
2023/04/14 23:37:13;;;;;;;3.05;1.42;;;;;;;12.55;53.67;99910.41;10370964;28;20053;-76
2023/04/14 23:42:14;;;;;;;2.75;1.50;;;;;;;12.20;53.49;99848.19;10371203;28;20049;-75
2023/04/14 23:47:15;;;;;;;4.45;1.85;;;;;;;12.43;53.68;99895.97;10369876;28;20034;-75
2023/04/14 23:52:16;;;;;;;4.85;1.50;;;;;;;11.99;53.44;99819.75;10370396;28;20096;-76
2023/04/14 23:57:17;;;;;;;2.65;1.70;;;;;;;12.18;53.89;99870.72;10368576;28;20052;-77
